ADDS METAR Data INFO
IDs: Format: Raw Decoded Include TAF

Data at: 1946 UTC 18 Feb 2018

KRNO 181855Z 28019G30KT 10SM FEW070 FEW190 09/M08 A2969 RMK AO2 PK WND 27042/1832 SLP034 T00891078
KRNO 181755Z 28026G36KT 10SM FEW070 FEW170 08/M07 A2969 RMK AO2 PK WND 28037/1726 SLP035 ACSL DSNT SE T00831072 10094 20072 53003
KRNO 181655Z 27023G33KT 10SM FEW075 FEW150 09/M10 A2967 RMK AO2 PK WND 28033/1654 SLP022 ACSL DSNT E-S T00941100
KRNO 181555Z 28019G28KT 10SM FEW075 FEW150 08/M07 A2969 RMK AO2 PK WND 27028/1549 SLP029 ACSL DSNT SE T00831072
KRNO 181455Z 27015G24KT 10SM FEW080 FEW140 FEW200 SCT250 08/M07 A2968 RMK AO2 SLP027 ACSL DSNT E T00781067 58030
KRNO 181355Z VRB03KT 10SM FEW080 SCT110 BKN230 08/M04 A2973 RMK AO2 SLP041 T00781039
KRNO 181255Z 24010G18KT 10SM SCT080 SCT200 BKN250 09/M04 A2975 RMK AO2 SLP046 T00891039
KRNO 181155Z 24007G26KT 10SM FEW090 FEW200 BKN250 09/M04 A2979 RMK AO2 PK WND 24026/1147 SLP054 T00891044 10111 20083 56013
KRNO 181055Z VRB03KT 10SM FEW080 FEW200 BKN230 09/M05 A2981 RMK AO2 SLP061 T00941050
KRNO 180955Z 15014G19KT 10SM FEW080 BKN230 10/M04 A2980 RMK AO2 SLP059 T01001044
KRNO 180855Z 28011G22KT 10SM FEW080 BKN230 11/M04 A2983 RMK AO2 PK WND 17034/0817 WSHFT 0807 SLP071 T01061039 58029
KRNO 180824Z 20013G34KT 10SM FEW080 FEW250 11/M03 A2985 RMK AO2 PK WND 17034/0817 WSHFT 0807 T01061033
KRNO 180755Z 28009G22KT 10SM FEW080 FEW250 10/M03 A2987 RMK AO2 PK WND 22029/0707 SLP092 T01001028 401941039
KRNO 180655Z 20024G29KT 10SM SCT065 10/M02 A2989 RMK AO2 PK WND 20029/0654 SLP101 T01001022
KRNO 180555Z 16008KT 10SM FEW065 09/M02 A2993 RMK AO2 SLP121 T00941022 10172 20094 56016
KRNO 180455Z 30003KT 10SM CLR 11/M02 A2995 RMK AO2 SLP131 T01111022
KRNO 180355Z 29013KT 10SM FEW070 FEW180 12/M03 A2996 RMK AO2 SLP137 T01171028
KRNO 180255Z 26013KT 10SM FEW070 FEW180 13/M03 A2998 RMK AO2 SLP148 T01281033 58005
KRNO 180155Z 27009G17KT 10SM FEW070 FEW180 14/M04 A3000 RMK AO2 SLP151 ACSL DSNT NE-E SE NW T01391044
KRNO 180055Z 29009G21KT 10SM FEW070 FEW180 SCT250 16/M06 A3001 RMK AO2 SLP150 APRNT ROTOR CLD DSNT S ACSL DSNT NE-E AND S T01561061
KRNO 172355Z 30010G20KT 10SM FEW180 SCT250 17/M06 A3000 RMK AO2 PK WND 29029/2259 SLP144 ACSL DSNT N AND S T01721056 10194 20044 56017
KRNO 172255Z 30016G24KT 10SM SCT200 19/M07 A3000 RMK AO2 PK WND 27026/2242 SLP143 T01891067
KRNO 172155Z 00000KT 10SM FEW200 17/M05 A3002 RMK AO2 SLP151 T01671050
KRNO 172055Z VRB03KT 10SM FEW200 15/M04 A3006 RMK AO2 SLP164 T01501039 58036
KRNO 171955Z 15003KT 10SM FEW200 11/M03 A3011 RMK AO2 SLP184 T01111033
KRNO 171855Z VRB03KT 10SM FEW200 08/M03 A3015 RMK AO2 SLP203 T00831033
KRNO 171755Z 00000KT 10SM FEW200 04/M04 A3018 RMK AO2 SLP216 T00441039 10050 21039 58012
KRNO 171655Z 00000KT 10SM FEW200 01/M04 A3020 RMK AO2 SLP225 T00111044
KRNO 171555Z 00000KT 10SM FEW200 M01/M06 A3021 RMK AO2 SLP233 T10111056
KRNO 171455Z 00000KT 10SM FEW180 FEW250 M04/M07 A3021 RMK AO2 SLP233 T10391067 58003
KRNO 171355Z 00000KT 10SM CLR M02/M07 A3022 RMK AO2 SLP231 T10221067
KRNO 171255Z 00000KT 10SM CLR M02/M06 A3022 RMK AO2 SLP227 T10221061
KRNO 171155Z 00000KT 10SM CLR M02/M06 A3022 RMK AO2 SLP230 T10221061 10050 21022 58005
KRNO 171055Z 00000KT 10SM CLR M01/M06 A3023 RMK AO2 SLP233 T10111061
KRNO 170955Z 00000KT 10SM CLR 00/M06 A3025 RMK AO2 SLP237 T00001056
KRNO 170855Z 00000KT 10SM CLR 01/M06 A3024 RMK AO2 SLP236 T00061056 51002
KRNO 170755Z 28003KT 10SM CLR 03/M05 A3024 RMK AO2 SLP238 T00281050 401391056